Time;durP1;ratioP1;P1;durP2;ratioP2;P2;SDS_P1;SDS_P2;PMS_P1;PMS_P2;Temp;Humidity;BMP_temperature;BMP_pressure;BME280_temperature;BME280_humidity;BME280_pressure;Samples;Min_cycle;Max_cycle;Signal;HPM_P1;HPM_P2
2021/06/11 00:02:04;;;;;;;14.63;11.93;;;;;;;15.78;100.00;98452.81;5072843;28;20253;-59
2021/06/11 00:04:30;;;;;;;12.73;11.33;;;;;;;15.77;100.00;98454.63;5072828;28;20314;-59
2021/06/11 00:06:57;;;;;;;14.30;12.23;;;;;;;15.78;100.00;98460.81;5072669;28;20218;-59
2021/06/11 00:09:23;;;;;;;13.37;11.97;;;;;;;15.70;100.00;98457.97;5072857;28;20578;-59
2021/06/11 00:11:49;;;;;;;15.30;11.60;;;;;;;15.69;100.00;98462.44;5072614;28;20230;-60
2021/06/11 00:14:17;;;;;;;12.87;11.57;;;;;;;15.68;100.00;98470.56;5073513;28;20294;-59
2021/06/11 00:16:43;;;;;;;12.97;11.57;;;;;;;15.64;100.00;98463.81;5076683;28;20576;-59
2021/06/11 00:19:09;;;;;;;11.90;10.70;;;;;;;15.59;100.00;98458.03;5076304;28;20610;-59
2021/06/11 00:21:35;;;;;;;11.93;10.73;;;;;;;15.53;100.00;98459.38;5076564;28;20251;-59
2021/06/11 00:24:01;;;;;;;12.77;11.30;;;;;;;15.50;100.00;98466.78;5076430;28;20243;-62
2021/06/11 00:26:27;;;;;;;13.93;11.53;;;;;;;15.45;100.00;98461.84;5076530;28;20218;-60
2021/06/11 00:28:53;;;;;;;14.43;11.73;;;;;;;15.34;100.00;98471.72;5076399;28;20260;-60
2021/06/11 00:31:20;;;;;;;13.93;11.23;;;;;;;15.35;100.00;98457.41;5076101;28;20276;-63
2021/06/11 00:33:46;;;;;;;13.10;11.70;;;;;;;15.30;100.00;98464.91;5076384;28;20214;-62
2021/06/11 00:36:12;;;;;;;12.50;11.20;;;;;;;15.29;100.00;98464.06;5076132;28;20711;-61
2021/06/11 00:38:38;;;;;;;11.63;10.07;;;;;;;15.27;100.00;98470.50;5076259;28;20215;-60
2021/06/11 00:41:04;;;;;;;11.00;9.87;;;;;;;15.23;100.00;98461.91;5074737;28;20233;-59
2021/06/11 00:43:30;;;;;;;11.57;10.37;;;;;;;15.17;100.00;98454.44;5075908;28;20222;-59
2021/06/11 00:45:56;;;;;;;12.47;11.10;;;;;;;15.14;100.00;98453.81;5076110;28;20268;-59
2021/06/11 00:48:23;;;;;;;10.73;9.63;;;;;;;15.11;100.00;98456.75;5076092;28;20226;-59
2021/06/11 00:50:49;;;;;;;12.83;11.47;;;;;;;15.11;100.00;98462.06;5076054;28;20218;-60
2021/06/11 00:53:16;;;;;;;11.50;10.30;;;;;;;15.07;100.00;98461.47;5076004;28;20211;-59
2021/06/11 00:55:44;;;;;;;11.13;9.93;;;;;;;15.07;100.00;98460.63;5076048;28;20226;-58
2021/06/11 00:58:10;;;;;;;11.63;10.43;;;;;;;15.08;100.00;98464.97;5075819;28;20223;-58
2021/06/11 01:00:36;;;;;;;13.10;10.73;;;;;;;15.11;100.00;98470.06;5075713;28;20231;-59
2021/06/11 01:03:02;;;;;;;12.63;11.00;;;;;;;15.17;100.00;98464.22;5075783;28;20243;-58
2021/06/11 01:05:30;;;;;;;12.60;11.20;;;;;;;15.20;100.00;98466.63;5073649;28;20221;-58
2021/06/11 01:07:57;;;;;;;12.47;11.17;;;;;;;15.19;100.00;98463.13;5075685;28;20211;-59
2021/06/11 01:10:25;;;;;;;12.63;10.93;;;;;;;15.23;100.00;98467.25;5075782;28;20211;-59
2021/06/11 01:12:52;;;;;;;13.00;10.97;;;;;;;15.25;100.00;98461.75;5075655;28;20218;-59
2021/06/11 01:15:21;;;;;;;11.87;10.40;;;;;;;15.26;100.00;98458.13;5075280;28;20238;-60
2021/06/11 01:17:48;;;;;;;12.97;11.33;;;;;;;15.25;100.00;98451.97;5075532;28;20265;-60
2021/06/11 01:20:15;;;;;;;12.90;11.50;;;;;;;15.25;100.00;98461.75;5075539;28;20245;-61
2021/06/11 01:23:03;;;;;;;12.80;11.13;;;;;;;15.18;100.00;98460.59;5075493;28;20215;-59
2021/06/11 01:25:37;;;;;;;13.77;11.00;;;;;;;15.13;100.00;98462.78;5074288;28;20264;-61
2021/06/11 01:28:06;;;;;;;12.10;10.80;;;;;;;15.10;100.00;98447.06;5075081;28;20210;-60
2021/06/11 01:30:34;;;;;;;12.03;10.73;;;;;;;15.08;100.00;98449.00;5075085;28;20297;-59
2021/06/11 01:33:03;;;;;;;12.13;10.87;;;;;;;15.09;100.00;98456.84;5073596;28;20218;-59
2021/06/11 01:35:38;;;;;;;14.73;12.00;;;;;;;15.10;100.00;98458.53;5075277;28;20211;-59
2021/06/11 01:38:05;;;;;;;11.70;10.03;;;;;;;15.05;100.00;98460.75;5075206;28;20215;-59
2021/06/11 01:40:34;;;;;;;12.20;11.00;;;;;;;15.00;100.00;98454.97;5074972;28;20231;-59
2021/06/11 01:43:02;;;;;;;12.77;11.20;;;;;;;15.01;100.00;98459.31;5075114;28;20218;-59
2021/06/11 01:45:30;;;;;;;11.57;10.33;;;;;;;14.99;100.00;98455.94;5074732;28;20289;-59
2021/06/11 01:47:58;;;;;;;12.40;11.10;;;;;;;14.99;100.00;98463.06;5074958;28;20231;-59
2021/06/11 01:50:28;;;;;;;12.83;11.43;;;;;;;14.96;100.00;98466.00;5075020;28;20245;-59
2021/06/11 01:52:55;;;;;;;13.20;11.63;;;;;;;14.95;100.00;98464.28;5074909;28;20204;-59
2021/06/11 01:55:23;;;;;;;14.23;11.80;;;;;;;14.92;100.00;98461.88;5074508;28;20219;-59
2021/06/11 01:57:49;;;;;;;14.73;12.60;;;;;;;14.90;100.00;98469.16;5074016;28;20225;-59
2021/06/11 02:00:17;;;;;;;14.10;12.27;;;;;;;14.93;100.00;98466.22;5073781;28;20324;-59
2021/06/11 02:02:46;;;;;;;12.83;11.53;;;;;;;14.89;100.00;98459.47;5074380;28;20218;-59
2021/06/11 02:05:14;;;;;;;16.63;13.13;;;;;;;14.91;100.00;98458.38;5074322;28;20214;-59
2021/06/11 02:07:42;;;;;;;15.63;12.97;;;;;;;14.86;100.00;98457.88;5074701;28;20214;-62
2021/06/11 02:10:10;;;;;;;16.57;13.33;;;;;;;14.86;100.00;98449.91;5074470;28;20223;-61
2021/06/11 02:12:37;;;;;;;15.70;13.67;;;;;;;14.88;100.00;98463.94;5074617;28;20283;-61
2021/06/11 02:15:04;;;;;;;17.60;13.57;;;;;;;14.87;100.00;98458.75;5074305;28;20242;-61
2021/06/11 02:17:31;;;;;;;16.97;14.17;;;;;;;14.83;100.00;98462.63;5074414;28;20206;-61
2021/06/11 02:19:59;;;;;;;15.57;13.33;;;;;;;14.79;100.00;98469.19;5074292;28;20318;-61
2021/06/11 02:22:25;;;;;;;17.37;13.67;;;;;;;14.66;100.00;98463.16;5073980;28;20393;-61
2021/06/11 02:24:51;;;;;;;16.10;13.30;;;;;;;14.60;100.00;98460.97;5072600;28;20224;-60
2021/06/11 02:27:19;;;;;;;13.53;12.13;;;;;;;14.52;100.00;98466.03;5074276;28;20622;-61
2021/06/11 02:29:45;;;;;;;14.93;12.50;;;;;;;14.43;100.00;98469.44;5073948;28;20779;-60
2021/06/11 02:32:11;;;;;;;14.27;11.37;;;;;;;14.40;100.00;98467.03;5074109;28;20223;-60
2021/06/11 02:34:37;;;;;;;14.90;12.33;;;;;;;14.33;100.00;98460.50;5073724;28;20210;-59
2021/06/11 02:37:04;;;;;;;15.67;12.47;;;;;;;14.28;100.00;98463.53;5073634;28;20206;-60
2021/06/11 02:39:30;;;;;;;14.90;12.07;;;;;;;14.27;100.00;98466.31;5073575;28;20237;-61
2021/06/11 02:42:02;;;;;;;13.23;11.73;;;;;;;14.26;100.00;98462.81;5073912;28;20209;-61
2021/06/11 02:44:31;;;;;;;15.87;12.87;;;;;;;14.29;100.00;98459.06;5074083;28;20261;-61
2021/06/11 02:47:03;;;;;;;14.20;12.70;;;;;;;14.31;100.00;98457.13;5074056;28;20218;-61
2021/06/11 02:49:33;;;;;;;16.33;13.30;;;;;;;14.30;100.00;98461.59;5073656;28;20696;-61
2021/06/11 02:52:02;;;;;;;15.27;12.90;;;;;;;14.34;100.00;98459.53;5071903;28;20676;-60
2021/06/11 02:54:33;;;;;;;15.63;11.90;;;;;;;14.36;100.00;98457.63;5073776;28;20213;-60
2021/06/11 02:57:05;;;;;;;13.77;12.17;;;;;;;14.36;100.00;98457.63;5073734;28;20268;-58
2021/06/11 02:59:33;;;;;;;14.93;13.30;;;;;;;14.38;100.00;98447.69;5073597;28;20245;-56
2021/06/11 03:02:03;;;;;;;16.00;13.93;;;;;;;14.36;100.00;98452.31;5073594;28;20214;-59
2021/06/11 03:04:30;;;;;;;17.23;14.13;;;;;;;14.32;100.00;98458.81;5073513;28;20236;-59
2021/06/11 03:06:57;;;;;;;14.63;12.87;;;;;;;14.28;100.00;98452.03;5073451;28;20209;-60
2021/06/11 03:09:26;;;;;;;16.50;13.37;;;;;;;14.22;100.00;98452.53;5073245;28;20209;-60
2021/06/11 03:11:56;;;;;;;14.70;12.97;;;;;;;14.19;100.00;98447.47;5073399;28;20216;-60
2021/06/11 03:14:24;;;;;;;19.67;13.60;;;;;;;14.18;100.00;98448.41;5072972;28;20672;-60
2021/06/11 03:16:54;;;;;;;15.13;12.40;;;;;;;14.21;100.00;98458.81;5071698;28;20211;-60
2021/06/11 03:19:22;;;;;;;17.50;14.13;;;;;;;14.22;100.00;98448.06;5072995;28;20216;-58
2021/06/11 03:21:54;;;;;;;15.90;13.33;;;;;;;14.26;100.00;98443.34;5072994;28;20212;-59
2021/06/11 03:24:25;;;;;;;18.90;15.00;;;;;;;14.24;100.00;98445.28;5073351;28;20217;-59
2021/06/11 03:26:56;;;;;;;17.20;14.83;;;;;;;14.24;100.00;98453.25;5073353;28;20240;-59
2021/06/11 03:29:37;;;;;;;18.30;14.40;;;;;;;14.24;100.00;98461.25;5073310;28;20226;-59
2021/06/11 03:32:07;;;;;;;16.37;13.07;;;;;;;14.23;100.00;98460.38;5073150;28;20217;-59
2021/06/11 03:34:35;;;;;;;15.40;13.73;;;;;;;14.25;100.00;98462.94;5073254;28;20209;-59
2021/06/11 03:37:06;;;;;;;15.37;12.97;;;;;;;14.27;100.00;98460.97;5073121;28;20232;-58
2021/06/11 03:39:39;;;;;;;15.17;13.00;;;;;;;14.26;100.00;98464.63;5072765;28;20329;-58
2021/06/11 03:42:09;;;;;;;16.07;13.23;;;;;;;14.27;100.00;98460.97;5072820;28;20217;-57
2021/06/11 03:44:39;;;;;;;15.33;11.90;;;;;;;14.30;100.00;98471.41;5071327;28;20213;-59
2021/06/11 03:47:07;;;;;;;13.07;11.60;;;;;;;14.36;100.00;98470.91;5072980;28;20213;-59
2021/06/11 03:49:35;;;;;;;14.60;13.00;;;;;;;14.48;100.00;98475.25;5072264;28;20217;-58
2021/06/11 03:52:02;;;;;;;13.67;11.73;;;;;;;14.55;100.00;98476.47;5072957;28;20211;-59
2021/06/11 03:54:29;;;;;;;13.80;11.63;;;;;;;14.55;100.00;98473.81;5072852;28;20216;-58
2021/06/11 03:56:58;;;;;;;13.00;11.67;;;;;;;14.57;100.00;98472.72;5072570;28;20709;-59
2021/06/11 03:59:28;;;;;;;13.60;11.47;;;;;;;14.60;100.00;98474.28;5072662;28;20222;-59
2021/06/11 04:01:55;;;;;;;13.10;10.97;;;;;;;14.60;100.00;98468.97;5072655;28;20214;-60
2021/06/11 04:04:21;;;;;;;13.03;11.40;;;;;;;14.61;100.00;98468.00;5072902;28;20210;-60
2021/06/11 04:06:51;;;;;;;12.10;10.77;;;;;;;14.61;100.00;98470.66;5072736;28;20211;-61
2021/06/11 04:09:21;;;;;;;13.23;11.43;;;;;;;14.63;100.00;98469.56;5071784;28;20214;-60
2021/06/11 04:11:51;;;;;;;14.00;10.87;;;;;;;14.66;100.00;98468.47;5072584;28;20327;-59
2021/06/11 04:14:24;;;;;;;13.87;11.90;;;;;;;14.70;100.00;98475.22;5072943;28;20212;-59
2021/06/11 04:16:57;;;;;;;15.50;11.47;;;;;;;14.72;100.00;98474.13;5072818;28;20210;-60
2021/06/11 04:19:25;;;;;;;12.37;11.07;;;;;;;14.76;100.00;98474.72;5072793;28;20213;-60
2021/06/11 04:21:53;;;;;;;13.00;11.03;;;;;;;14.80;100.00;98476.19;5072808;28;20221;-60
2021/06/11 04:24:26;;;;;;;12.70;11.40;;;;;;;14.86;100.00;98487.16;5072633;28;20275;-60
2021/06/11 04:26:52;;;;;;;14.47;11.30;;;;;;;14.93;100.00;98476.88;5072670;28;20209;-60
2021/06/11 04:29:19;;;;;;;13.53;12.13;;;;;;;14.98;100.00;98485.34;5072433;28;20225;-60
2021/06/11 04:31:45;;;;;;;14.23;12.27;;;;;;;15.05;100.00;98475.88;5072636;28;20207;-60
2021/06/11 04:34:16;;;;;;;13.43;12.03;;;;;;;15.12;100.00;98477.06;5072288;28;20237;-60
2021/06/11 04:36:44;;;;;;;15.07;12.53;;;;;;;15.21;100.00;98477.16;5070661;28;20641;-59
2021/06/11 04:39:10;;;;;;;12.47;11.17;;;;;;;15.30;100.00;98480.88;5072165;28;20267;-59
2021/06/11 04:41:37;;;;;;;13.13;11.63;;;;;;;15.36;100.00;98481.25;5072088;28;20242;-59
2021/06/11 04:44:05;;;;;;;13.97;12.13;;;;;;;15.40;100.00;98484.50;5072239;28;20672;-58
2021/06/11 04:46:31;;;;;;;15.00;12.80;;;;;;;15.46;100.00;98492.00;5072274;28;20233;-60
2021/06/11 04:48:57;;;;;;;12.67;11.37;;;;;;;15.49;100.00;98491.72;5072123;28;20210;-60
2021/06/11 04:51:24;;;;;;;13.87;11.80;;;;;;;15.58;100.00;98483.81;5072386;28;20217;-60
2021/06/11 04:53:51;;;;;;;11.87;10.67;;;;;;;15.66;100.00;98488.50;5072298;28;20207;-60
2021/06/11 04:56:17;;;;;;;13.23;11.77;;;;;;;15.72;100.00;98493.31;5072090;28;20214;-60
2021/06/11 04:58:44;;;;;;;13.17;11.77;;;;;;;15.64;100.00;98479.81;5072379;28;20215;-58
2021/06/11 05:01:11;;;;;;;13.87;11.63;;;;;;;15.73;100.00;98487.00;5075801;28;20246;-58
2021/06/11 05:03:37;;;;;;;11.63;10.43;;;;;;;15.88;100.00;98493.72;5074293;28;20221;-60
2021/06/11 05:06:04;;;;;;;12.93;11.20;;;;;;;16.04;100.00;98478.97;5075632;28;20692;-60
2021/06/11 05:08:32;;;;;;;11.40;10.20;;;;;;;16.56;100.00;98493.00;5075859;28;20289;-60
2021/06/11 05:10:59;;;;;;;10.90;9.77;;;;;;;17.27;100.00;98490.13;5075658;28;20211;-60
2021/06/11 05:13:24;;;;;;;11.10;10.00;;;;;;;18.01;100.00;98494.78;5075715;28;20707;-60
2021/06/11 05:15:51;;;;;;;10.43;9.43;;;;;;;18.76;100.00;98506.25;5075742;28;20272;-58
2021/06/11 05:18:17;;;;;;;9.33;8.43;;;;;;;19.60;99.82;98503.25;5075574;28;20553;-59
2021/06/11 05:20:43;;;;;;;9.53;8.53;;;;;;;20.32;92.43;98498.50;5075408;28;20285;-60
2021/06/11 05:23:10;;;;;;;9.80;8.80;;;;;;;20.90;86.89;98510.25;5075342;28;20207;-60
2021/06/11 05:25:38;;;;;;;9.20;8.20;;;;;;;21.32;84.68;98513.78;5075184;28;20222;-60
2021/06/11 05:28:04;;;;;;;8.87;8.07;;;;;;;21.75;81.89;98502.81;5075062;28;20208;-60
2021/06/11 05:30:31;;;;;;;9.80;8.77;;;;;;;22.09;77.93;98508.88;5074299;28;20211;-60
2021/06/11 05:32:58;;;;;;;9.33;8.43;;;;;;;22.43;75.80;98506.84;5075264;28;20621;-60
2021/06/11 05:35:24;;;;;;;7.93;7.13;;;;;;;22.69;74.35;98512.88;5075350;28;20219;-59
2021/06/11 05:37:50;;;;;;;8.47;7.67;;;;;;;22.94;72.98;98513.63;5075182;28;20207;-60
2021/06/11 05:40:17;;;;;;;8.97;8.17;;;;;;;23.11;71.39;98518.78;5074875;28;20262;-60
2021/06/11 05:42:44;;;;;;;8.67;7.77;;;;;;;23.25;70.90;98515.38;5074805;28;20692;-60
2021/06/11 05:45:11;;;;;;;8.17;7.47;;;;;;;23.39;69.84;98521.88;5074890;28;20211;-60
2021/06/11 05:47:38;;;;;;;8.20;7.50;;;;;;;23.62;68.21;98518.22;5075049;28;20257;-60
2021/06/11 05:50:06;;;;;;;8.93;8.13;;;;;;;23.86;67.32;98526.16;5074960;28;20207;-60
2021/06/11 05:52:32;;;;;;;9.33;8.43;;;;;;;24.04;65.90;98518.63;5074842;28;20208;-60
2021/06/11 05:54:58;;;;;;;9.83;8.10;;;;;;;24.19;66.13;98524.09;5073056;28;20216;-59
2021/06/11 05:57:25;;;;;;;8.90;8.00;;;;;;;24.35;64.39;98521.22;5075019;28;20215;-60
2021/06/11 05:59:55;;;;;;;8.40;7.70;;;;;;;24.49;64.74;98513.16;5074565;28;20269;-60
2021/06/11 06:02:21;;;;;;;9.17;8.27;;;;;;;24.57;63.74;98514.97;5074991;28;20211;-60
2021/06/11 06:04:47;;;;;;;8.23;7.43;;;;;;;24.74;64.16;98519.19;5074464;28;20208;-59
2021/06/11 06:07:13;;;;;;;8.33;7.50;;;;;;;24.95;63.51;98519.28;5074293;28;20211;-59
2021/06/11 06:09:39;;;;;;;8.43;7.13;;;;;;;25.15;62.02;98520.38;5074609;28;20207;-60
2021/06/11 06:12:06;;;;;;;8.70;7.17;;;;;;;25.34;62.12;98517.97;5073875;28;20254;-60
2021/06/11 06:14:33;;;;;;;8.17;7.30;;;;;;;25.51;61.67;98522.13;5074222;28;20231;-60
2021/06/11 06:17:00;;;;;;;7.77;7.00;;;;;;;25.81;60.47;98521.03;5074173;28;20212;-60
2021/06/11 06:19:26;;;;;;;8.13;7.30;;;;;;;25.98;58.39;98519.75;5074327;28;20579;-60
2021/06/11 06:21:52;;;;;;;8.93;8.03;;;;;;;26.02;57.88;98521.06;5072655;28;20204;-60
2021/06/11 06:24:18;;;;;;;7.77;7.07;;;;;;;26.17;57.33;98519.13;5074267;28;20212;-60
2021/06/11 06:26:44;;;;;;;9.00;8.00;;;;;;;26.11;57.32;98514.50;5074097;28;20253;-59
2021/06/11 06:29:10;;;;;;;7.90;7.10;;;;;;;26.06;58.57;98522.34;5074270;28;20231;-60
2021/06/11 06:31:37;;;;;;;7.50;6.80;;;;;;;26.25;58.69;98518.13;5072890;28;20731;-59
2021/06/11 06:34:04;;;;;;;7.40;6.70;;;;;;;26.48;57.24;98516.91;5074092;28;20210;-60
2021/06/11 06:36:30;;;;;;;7.33;6.40;;;;;;;26.78;56.95;98515.69;5074014;28;20203;-60
2021/06/11 06:38:59;;;;;;;8.00;7.30;;;;;;;27.00;57.00;98525.41;5073680;28;20211;-59
2021/06/11 06:41:25;;;;;;;7.33;6.60;;;;;;;27.25;56.61;98518.47;5073609;28;20268;-60
2021/06/11 06:43:51;;;;;;;7.13;6.47;;;;;;;27.39;56.36;98526.50;5073938;28;20212;-59
2021/06/11 06:46:21;;;;;;;7.67;6.97;;;;;;;27.50;55.02;98522.34;5073543;28;20203;-61
2021/06/11 06:48:47;;;;;;;8.43;7.43;;;;;;;27.62;54.32;98523.44;5072237;28;20207;-60
2021/06/11 06:51:15;;;;;;;8.27;7.43;;;;;;;27.66;54.46;98519.28;5073502;28;20207;-60
2021/06/11 06:53:41;;;;;;;7.50;6.80;;;;;;;27.75;54.38;98520.78;5073712;28;20215;-60
2021/06/11 06:56:07;;;;;;;9.13;7.27;;;;;;;27.77;54.11;98516.00;5073806;28;20555;-60
2021/06/11 06:58:33;;;;;;;7.80;7.00;;;;;;;27.80;54.28;98521.03;5070588;28;20245;-60
2021/06/11 07:00:59;;;;;;;8.93;7.47;;;;;;;27.83;53.60;98526.88;5072137;28;20266;-60
2021/06/11 07:03:25;;;;;;;8.10;7.30;;;;;;;27.60;53.13;98525.53;5072404;28;20250;-60
2021/06/11 07:05:51;;;;;;;7.27;6.67;;;;;;;27.33;54.09;98529.19;5072862;28;20624;-61
2021/06/11 07:08:18;;;;;;;8.63;7.83;;;;;;;27.02;55.02;98526.06;5070948;28;20261;-59
2021/06/11 07:10:44;;;;;;;7.30;6.60;;;;;;;26.70;56.76;98521.25;5071445;28;20203;-58
2021/06/11 07:13:11;;;;;;;7.20;6.60;;;;;;;25.99;59.04;98526.88;5072354;28;20211;-59
2021/06/11 07:15:37;;;;;;;8.50;7.70;;;;;;;24.97;63.09;98528.03;5069762;28;20235;-63
2021/06/11 07:18:04;;;;;;;8.20;7.50;;;;;;;23.93;65.57;98521.75;5072205;28;20313;-59
2021/06/11 07:20:31;;;;;;;8.33;7.53;;;;;;;23.39;69.62;98533.53;5072542;28;20322;-59
2021/06/11 07:22:57;;;;;;;9.13;8.23;;;;;;;23.06;71.78;98528.41;5070788;28;20203;-60
2021/06/11 07:25:24;;;;;;;8.93;8.03;;;;;;;22.85;73.39;98522.78;5072278;28;20257;-60
2021/06/11 07:27:50;;;;;;;7.87;7.17;;;;;;;22.67;74.61;98533.75;5072129;28;20219;-60
2021/06/11 07:30:17;;;;;;;11.00;8.60;;;;;;;22.57;73.86;98514.25;5071309;28;20215;-60
2021/06/11 07:32:43;;;;;;;9.30;8.40;;;;;;;22.47;75.00;98521.66;5072237;28;20204;-61
2021/06/11 07:35:11;;;;;;;9.00;8.17;;;;;;;22.36;75.56;98516.59;5073115;28;20650;-61
2021/06/11 07:37:37;;;;;;;8.93;8.03;;;;;;;22.40;77.50;98526.03;5073061;28;20215;-61
2021/06/11 07:40:04;;;;;;;9.30;8.40;;;;;;;22.36;75.86;98521.16;5071918;28;20299;-61
2021/06/11 07:42:31;;;;;;;9.03;8.13;;;;;;;22.39;77.37;98521.66;5072561;28;20272;-60
2021/06/11 07:44:57;;;;;;;8.80;7.90;;;;;;;22.50;79.04;98526.69;5072736;28;20207;-60
2021/06/11 07:47:23;;;;;;;8.83;7.77;;;;;;;22.57;77.76;98522.34;5071569;28;20626;-60
2021/06/11 07:49:49;;;;;;;9.87;8.87;;;;;;;22.58;75.73;98523.16;5070783;28;20218;-60
2021/06/11 07:52:15;;;;;;;9.17;8.27;;;;;;;22.63;76.04;98524.34;5072573;28;20253;-60
2021/06/11 07:54:41;;;;;;;8.57;7.77;;;;;;;22.77;78.56;98526.31;5073005;28;20222;-60
2021/06/11 07:57:09;;;;;;;8.60;7.80;;;;;;;22.87;78.62;98521.56;5072755;28;20223;-60
2021/06/11 07:59:37;;;;;;;9.53;8.63;;;;;;;22.93;77.64;98520.84;5072657;28;20567;-60
2021/06/11 08:02:03;;;;;;;9.07;8.23;;;;;;;22.98;75.33;98518.50;5073060;28;20219;-60
2021/06/11 08:04:31;;;;;;;9.13;8.23;;;;;;;22.94;73.57;98517.19;5072938;28;20210;-60
2021/06/11 08:06:57;;;;;;;8.97;8.17;;;;;;;22.96;73.08;98522.38;5071289;28;20211;-60
2021/06/11 08:09:25;;;;;;;8.90;8.00;;;;;;;22.98;72.94;98528.44;5072940;28;20344;-61
2021/06/11 08:11:51;;;;;;;8.57;7.87;;;;;;;22.99;71.97;98528.25;5072910;28;20297;-60
2021/06/11 08:14:17;;;;;;;8.57;7.77;;;;;;;23.05;71.78;98530.25;5072802;28;20207;-61
2021/06/11 08:16:44;;;;;;;9.30;8.40;;;;;;;23.01;72.14;98522.69;5072560;28;20223;-61
2021/06/11 08:19:10;;;;;;;10.00;9.10;;;;;;;23.04;72.04;98523.19;5072841;28;20645;-61
2021/06/11 08:21:36;;;;;;;10.00;8.87;;;;;;;23.09;73.31;98520.81;5072456;28;20239;-60
2021/06/11 08:24:02;;;;;;;10.03;9.03;;;;;;;23.20;74.21;98520.47;5072926;28;20354;-60
2021/06/11 08:26:28;;;;;;;9.93;9.00;;;;;;;23.27;72.85;98529.53;5073026;28;20216;-60
2021/06/11 08:28:54;;;;;;;9.20;8.40;;;;;;;23.40;74.63;98524.41;5072740;28;20212;-60
2021/06/11 08:31:20;;;;;;;9.60;8.70;;;;;;;23.51;71.31;98518.63;5072673;28;20605;-60
2021/06/11 08:33:48;;;;;;;9.13;8.30;;;;;;;23.56;71.40;98518.06;5070674;28;20584;-60
2021/06/11 08:36:14;;;;;;;8.93;8.13;;;;;;;23.62;72.57;98514.66;5076069;28;20697;-60
2021/06/11 08:38:40;;;;;;;9.77;8.87;;;;;;;23.79;75.60;98518.94;5076383;28;20207;-60
2021/06/11 08:41:09;;;;;;;10.97;9.90;;;;;;;23.87;74.21;98510.78;5076352;28;20234;-60
2021/06/11 08:43:35;;;;;;;12.10;10.50;;;;;;;23.87;68.93;98511.66;5076158;28;20321;-60
2021/06/11 08:46:02;;;;;;;11.30;9.87;;;;;;;23.83;70.81;98520.28;5076266;28;20319;-61
2021/06/11 08:48:28;;;;;;;11.17;10.17;;;;;;;23.90;73.33;98516.69;5076325;28;20230;-60
2021/06/11 08:50:55;;;;;;;11.13;10.07;;;;;;;23.96;72.19;98515.16;5076267;28;20327;-60
2021/06/11 08:53:21;;;;;;;11.33;10.23;;;;;;;24.00;72.04;98511.91;5076025;28;20208;-60
2021/06/11 08:55:48;;;;;;;11.07;9.80;;;;;;;24.05;70.70;98520.31;5075814;28;20681;-60
2021/06/11 08:58:14;;;;;;;9.60;8.70;;;;;;;24.19;70.10;98516.78;5075200;28;20230;-60
2021/06/11 09:00:41;;;;;;;11.07;10.07;;;;;;;24.23;71.61;98512.72;5074966;28;20704;-60
2021/06/11 09:03:09;;;;;;;9.60;8.80;;;;;;;24.25;65.78;98510.66;5075991;28;20556;-60
2021/06/11 09:05:35;;;;;;;10.20;9.30;;;;;;;24.26;67.35;98512.34;5075934;28;20218;-60
2021/06/11 09:08:13;;;;;;;9.37;8.47;;;;;;;24.29;69.34;98508.44;5075860;28;20249;-60
2021/06/11 09:10:39;;;;;;;9.47;8.63;;;;;;;24.39;69.87;98509.84;5075802;28;20601;-61
2021/06/11 09:13:05;;;;;;;8.23;7.53;;;;;;;24.48;69.26;98511.47;5075474;28;20215;-60
2021/06/11 09:15:31;;;;;;;8.37;7.67;;;;;;;24.59;66.97;98502.09;5073213;28;20457;-61
2021/06/11 09:17:58;;;;;;;9.07;8.27;;;;;;;24.62;64.81;98507.97;5073929;28;20233;-60
2021/06/11 09:20:28;;;;;;;9.77;8.77;;;;;;;24.73;64.97;98504.81;5075126;28;20289;-60
2021/06/11 09:22:57;;;;;;;9.53;8.73;;;;;;;24.77;65.17;98505.28;5074846;28;20208;-60
2021/06/11 09:25:33;;;;;;;8.47;7.67;;;;;;;24.79;65.26;98511.34;5073198;28;20301;-60
2021/06/11 09:28:01;;;;;;;7.97;7.37;;;;;;;24.87;67.90;98501.25;5073248;28;20214;-60
2021/06/11 09:30:32;;;;;;;8.73;7.93;;;;;;;24.96;67.12;98508.28;5074495;28;20215;-61
2021/06/11 09:33:00;;;;;;;8.63;7.90;;;;;;;25.01;67.01;98513.13;5074678;28;20208;-61
2021/06/11 09:35:32;;;;;;;9.10;8.30;;;;;;;25.07;65.70;98505.09;5074776;28;20207;-61
2021/06/11 09:38:18;;;;;;;10.00;9.10;;;;;;;25.00;59.91;98512.25;5074723;28;20298;-61
2021/06/11 09:40:49;;;;;;;11.30;10.20;;;;;;;25.09;61.70;98511.16;5074417;28;20235;-61
2021/06/11 09:43:16;;;;;;;10.87;9.87;;;;;;;25.11;63.16;98500.97;5074710;28;20607;-61
2021/06/11 09:45:43;;;;;;;13.17;11.87;;;;;;;25.20;65.00;98497.16;5073437;28;20210;-61
2021/06/11 09:48:17;;;;;;;11.17;10.07;;;;;;;25.18;67.34;98504.59;5074108;28;20211;-61
2021/06/11 09:50:48;;;;;;;10.43;9.53;;;;;;;25.16;62.87;98508.53;5074487;28;20208;-61
2021/06/11 09:53:15;;;;;;;11.00;9.90;;;;;;;25.21;65.52;98498.84;5072807;28;20211;-61
2021/06/11 09:55:43;;;;;;;10.73;9.73;;;;;;;25.33;68.52;98497.34;5074525;28;20208;-61
2021/06/11 09:58:14;;;;;;;11.13;10.00;;;;;;;25.44;64.78;98501.44;5074394;28;20215;-60
2021/06/11 10:00:42;;;;;;;11.40;10.40;;;;;;;25.58;59.91;98501.41;5074025;28;20539;-61
2021/06/11 10:03:11;;;;;;;11.30;10.20;;;;;;;25.63;59.93;98496.25;5074512;28;20213;-61
2021/06/11 10:05:39;;;;;;;10.00;9.20;;;;;;;25.59;57.16;98497.66;5070407;28;20204;-60
2021/06/11 10:08:06;;;;;;;9.47;8.67;;;;;;;25.64;56.46;98492.50;5073918;28;20678;-59
2021/06/11 10:10:32;;;;;;;9.67;8.87;;;;;;;25.71;56.75;98497.97;5074198;28;20281;-60
2021/06/11 10:12:59;;;;;;;9.73;8.90;;;;;;;25.80;56.02;98489.56;5073766;28;20695;-60
2021/06/11 10:15:26;;;;;;;9.67;8.87;;;;;;;25.85;55.55;98491.69;5074054;28;20327;-60
2021/06/11 10:17:52;;;;;;;11.40;10.30;;;;;;;25.96;56.87;98483.09;5072068;28;20700;-60
2021/06/11 10:20:18;;;;;;;10.13;9.23;;;;;;;25.95;54.52;98493.06;5073475;28;20233;-60
2021/06/11 10:22:45;;;;;;;9.57;8.67;;;;;;;26.04;57.84;98489.19;5073858;28;20207;-59
2021/06/11 10:25:12;;;;;;;9.40;8.60;;;;;;;26.17;60.05;98483.91;5073802;28;20261;-60
2021/06/11 10:27:41;;;;;;;9.03;8.33;;;;;;;26.35;57.72;98489.69;5073846;28;20684;-59
2021/06/11 10:30:08;;;;;;;9.07;8.17;;;;;;;26.53;53.83;98492.75;5073795;28;20207;-60
2021/06/11 10:32:40;;;;;;;9.03;8.33;;;;;;;26.68;55.46;98479.94;5073621;28;20203;-60
2021/06/11 10:35:07;;;;;;;11.73;10.73;;;;;;;26.81;51.39;98485.44;5073347;28;20707;-60
2021/06/11 10:37:35;;;;;;;10.80;9.90;;;;;;;26.77;51.99;98483.34;5073233;28;20215;-60
2021/06/11 10:40:16;;;;;;;9.60;8.80;;;;;;;26.74;49.73;98487.28;5073484;28;20211;-60
2021/06/11 10:42:43;;;;;;;9.40;8.60;;;;;;;26.64;46.84;98492.22;5073644;28;20211;-60
2021/06/11 10:45:12;;;;;;;7.57;6.97;;;;;;;26.63;47.85;98482.41;5071438;28;20203;-60
2021/06/11 10:47:53;;;;;;;7.40;6.80;;;;;;;26.76;53.05;98476.25;5073289;28;20220;-60
2021/06/11 10:50:32;;;;;;;7.37;6.77;;;;;;;26.91;55.70;98485.94;5073281;28;20211;-60
2021/06/11 10:53:13;;;;;;;8.27;7.67;;;;;;;27.02;53.97;98480.75;5073255;28;20199;-60
2021/06/11 10:55:50;;;;;;;9.17;8.47;;;;;;;27.07;51.82;98477.44;5073294;28;20215;-60
2021/06/11 10:58:31;;;;;;;8.97;8.17;;;;;;;27.18;51.54;98476.91;5072941;28;20215;-60
2021/06/11 11:00:57;;;;;;;9.13;8.27;;;;;;;27.30;57.39;98475.28;5072771;28;20256;-60
2021/06/11 11:03:30;;;;;;;9.00;7.87;;;;;;;27.45;52.40;98478.72;5072892;28;20215;-60
2021/06/11 11:05:57;;;;;;;7.80;7.18;;;;;;;27.37;50.80;98465.28;5073074;28;20204;-60
2021/06/11 11:08:49;;;;;;;9.70;8.90;;;;;;;27.30;45.40;98469.03;5073012;28;20211;-60
2021/06/11 11:11:26;;;;;;;8.13;7.32;;;;;;;26.94;49.37;98471.94;5071230;28;20285;-60
2021/06/11 11:13:52;;;;;;;8.00;7.33;;;;;;;26.77;48.85;98465.16;5072748;28;20210;-60
2021/06/11 11:16:22;;;;;;;9.07;8.30;;;;;;;26.90;56.98;98467.13;5072809;28;20227;-60
2021/06/11 11:18:50;;;;;;;10.27;9.32;;;;;;;26.93;54.94;98462.16;5072779;28;20227;-60
2021/06/11 11:21:24;;;;;;;9.50;8.60;;;;;;;26.98;50.87;98459.66;5072467;28;20235;-60
2021/06/11 11:23:51;;;;;;;8.83;8.07;;;;;;;26.98;49.07;98447.97;5072837;28;20215;-60
2021/06/11 11:26:18;;;;;;;9.20;8.40;;;;;;;26.92;53.98;98458.59;5073211;28;20223;-60